San Bernardino, California
Current Conditions -  °F | °C
As of 7:53 PM on Tuesday 25 Nov 2014 (Local Time) from KRAL Reporting Station
Clear Clear  
Wind Chill: 61°   Ceiling: Unl
Heat Index: 61°   Visibility: 10mi
Dew Point: 19°   Wind: 3mph
Humidity: 20%   Direction: 70°ENE
Pressure: 30.3"   Gusts: NA
Location:  34.11°N, 117.29°W
Report Text: KRAL 260353Z 07003KT 10SM CLR 16/M07 A3030 RMK AO2 SLP252 T01611072
Loading
Personal Weather Stations






























Interactive Weather Map New forecast layout! Learn more

10-Day Weather Forecast

Advertisements
Track Severe Weather on mobile